Observations for BIRMINGHAM AIRPORT, United Kingdom (EGBB)

EGBB 250320Z AUTO 27005KT 9999 NCD 02/00 Q1012  
EGBB 250250Z AUTO 27005KT 9999 NCD 02/01 Q1012  
EGBB 250220Z AUTO 26005KT 9999 NCD 02/01 Q1012  
EGBB 250150Z AUTO 27005KT 9999 NCD 03/01 Q1012  
EGBB 250120Z AUTO 26006KT 9999 NCD 03/01 Q1012  
EGBB 250050Z AUTO 26006KT 9999 NCD 03/01 Q1012  
EGBB 250020Z AUTO 25004KT 9999 NCD 04/01 Q1012  
EGBB 242350Z AUTO 24003KT 9999 FEW024/// 04/01 Q1012
EGBB 242320Z 21004KT 170V250 9999 FEW044 04/01 Q1011
EGBB 242250Z 25005KT 9999 FEW048 04/01 Q1012
EGBB 242220Z 28006KT 9999 FEW034 SCT040 BKN048 04/01 Q1012  
EGBB 242150Z 25005KT 9999 SCT036 04/00 Q1012
EGBB 242120Z 26005KT 9999 FEW036 04/M00 Q1012   
EGBB 242050Z 20004KT 9999 SCT036 03/M00 Q1012   
EGBB 242020Z 19005KT CAVOK 02/M00 Q1012 
EGBB 241950Z 18004KT CAVOK 03/M00 Q1012 
EGBB 241920Z 21004KT 180V240 CAVOK 04/00 Q1012  
EGBB 241850Z 19004KT CAVOK 03/00 Q1012  
EGBB 241820Z VRB02KT CAVOK 02/M00 Q1011 
EGBB 241750Z 18003KT CAVOK 03/M00 Q1011 
EGBB 241720Z 17003KT CAVOK 04/00 Q1011  
EGBB 241650Z 19004KT 9999 FEW020 04/00 Q1011
EGBB 241620Z 18004KT 9999 FEW020 05/M00 Q1011   
EGBB 241550Z 19004KT 9999 FEW020 06/00 Q1011
EGBB 241520Z 19004KT 160V240 9999 FEW020 07/00 Q1011
EGBB 241450Z 24004KT 200V280 CAVOK 08/M01 Q1011 
EGBB 241420Z 25004KT 220V290 CAVOK 08/M01 Q1011 
EGBB 241350Z 26006KT 220V280 9999 FEW036 08/M01 Q1011   
EGBB 241320Z 29004KT 230V320 CAVOK 08/M01 Q1011 
EGBB 241250Z 28005KT 240V320 CAVOK 07/M01 Q1011 
EGBB 241220Z 27004KT 230V320 CAVOK 07/M01 Q1011 
EGBB 241150Z 26005KT 220V290 CAVOK 07/M01 Q1011 
EGBB 241120Z 25005KT CAVOK 07/M01 Q1011 
EGBB 241050Z 27005KT 240V300 CAVOK 06/M00 Q1011 
EGBB 241020Z 27004KT 240V300 CAVOK 06/00 Q1011  
EGBB 240950Z 27005KT CAVOK 05/00 Q1010  
EGBB 240920Z 25006KT CAVOK 05/M00 Q1010 
EGBB 240850Z 25005KT CAVOK 04/00 Q1010  
EGBB 240820Z 23004KT CAVOK 04/00 Q1009  
EGBB 240750Z 22004KT CAVOK 03/01 Q1009  
EGBB 240720Z 23004KT CAVOK 03/01 Q1008  
EGBB 240650Z 30003KT CAVOK 04/01 Q1008  
EGBB 240620Z 29004KT CAVOK 04/01 Q1008  
EGBB 240550Z 26004KT CAVOK 05/01 Q1007  
EGBB 240520Z 25005KT CAVOK 05/01 Q1007  
EGBB 240450Z 26004KT CAVOK 05/01 Q1007  
EGBB 240420Z 26005KT CAVOK 05/02 Q1006  
EGBB 240350Z AUTO 25004KT 9999 NCD 05/02 Q1006  
EGBB 240320Z AUTO 25005KT 9999 NCD 05/02 Q1006  
EGBB 240250Z AUTO 26005KT 9999 NCD 06/02 Q1006